Time;durP1;ratioP1;P1;durP2;ratioP2;P2;SDS_P1;SDS_P2;PMS_P1;PMS_P2;Temp;Humidity;BMP_temperature;BMP_pressure;BME280_temperature;BME280_humidity;BME280_pressure;Samples;Min_cycle;Max_cycle;Signal;HPM_P1;HPM_P2
2021/01/08 00:02:21;;;;;;;16.35;12.43;;;18.90;99.90;;;;;;4136670;34;20140;-90
2021/01/08 00:04:49;;;;;;;11.00;9.90;;;18.90;99.90;;;;;;4148578;34;20053;-91
2021/01/08 00:07:17;;;;;;;13.23;10.80;;;18.80;99.90;;;;;;4142497;34;20151;-90
2021/01/08 00:09:45;;;;;;;16.73;10.13;;;18.80;99.90;;;;;;4144544;34;21889;-89
2021/01/08 00:12:14;;;;;;;17.33;10.25;;;18.80;99.90;;;;;;4143274;34;20385;-89
2021/01/08 00:14:41;;;;;;;14.00;11.65;;;18.80;99.90;;;;;;4141982;34;20116;-84
2021/01/08 00:17:10;;;;;;;17.42;12.82;;;18.80;99.90;;;;;;4149982;34;20096;-88
2021/01/08 00:19:39;;;;;;;15.88;12.18;;;18.80;99.90;;;;;;4137359;34;20119;-88
2021/01/08 00:22:09;;;;;;;19.10;12.88;;;18.70;99.90;;;;;;4146477;34;20503;-86
2021/01/08 00:24:37;;;;;;;15.45;13.70;;;18.70;99.90;;;;;;4148776;34;20177;-86
2021/01/08 00:27:05;;;;;;;15.60;11.57;;;18.60;99.90;;;;;;4152720;34;20077;-85
2021/01/08 00:29:33;;;;;;;21.05;12.73;;;18.60;99.90;;;;;;4137436;34;20068;-88
2021/01/08 00:32:01;;;;;;;16.17;13.77;;;18.60;99.90;;;;;;4143918;34;20178;-85
2021/01/08 00:34:30;;;;;;;18.42;15.98;;;18.50;99.90;;;;;;4147467;34;20056;-85
2021/01/08 00:36:58;;;;;;;17.27;15.90;;;18.50;99.90;;;;;;4142080;34;20095;-86
2021/01/08 00:39:27;;;;;;;10.13;9.15;;;18.50;99.90;;;;;;4141808;34;20049;-90
2021/01/08 00:41:55;;;;;;;14.00;12.88;;;18.50;99.90;;;;;;4139878;34;20109;-91
2021/01/08 00:44:23;;;;;;;7.43;1.50;;;18.50;99.90;;;;;;4145666;34;20069;-87
2021/01/08 00:46:52;;;;;;;11.57;1.23;;;18.50;99.90;;;;;;4135418;34;20060;-89
2021/01/08 00:49:20;;;;;;;8.05;1.40;;;18.50;99.90;;;;;;4128676;34;20068;-85
2021/01/08 00:51:49;;;;;;;5.68;1.30;;;18.50;99.90;;;;;;4146374;34;20052;-85
2021/01/08 00:54:17;;;;;;;17.17;15.48;;;18.50;99.90;;;;;;4131688;34;20108;-86
2021/01/08 00:56:46;;;;;;;16.85;14.85;;;18.40;99.90;;;;;;4140135;34;20107;-89
2021/01/08 00:59:15;;;;;;;12.23;6.65;;;18.40;99.90;;;;;;4137589;34;20562;-85
2021/01/08 01:01:43;;;;;;;19.92;18.42;;;18.40;99.90;;;;;;4137464;34;20135;-85
2021/01/08 01:04:12;;;;;;;19.33;17.55;;;18.50;99.90;;;;;;4151771;34;20144;-86
2021/01/08 01:06:43;;;;;;;12.80;10.43;;;18.50;99.90;;;;;;4139184;34;20502;-88
2021/01/08 01:09:12;;;;;;;6.20;2.92;;;18.50;99.90;;;;;;4136087;34;20146;-88
2021/01/08 01:11:40;;;;;;;13.88;2.67;;;18.50;99.90;;;;;;4152239;34;20086;-90
2021/01/08 01:14:08;;;;;;;6.70;2.85;;;18.50;99.90;;;;;;4155014;34;20076;-91
2021/01/08 01:16:36;;;;;;;15.77;3.30;;;18.50;99.90;;;;;;4145017;34;20478;-87
2021/01/08 01:19:04;;;;;;;10.63;3.00;;;18.50;99.90;;;;;;4136535;34;20654;-87
2021/01/08 01:21:32;;;;;;;12.02;3.25;;;18.50;99.90;;;;;;4146401;34;20323;-87
2021/01/08 01:24:01;;;;;;;15.55;2.17;;;18.50;99.90;;;;;;4134522;34;20049;-85
2021/01/08 01:26:29;;;;;;;6.50;1.98;;;18.60;99.90;;;;;;4139014;34;20057;-86
2021/01/08 01:28:57;;;;;;;8.82;1.70;;;18.70;99.90;;;;;;4128484;34;20057;-84
2021/01/08 01:31:26;;;;;;;8.65;1.92;;;18.70;99.90;;;;;;4143203;34;20029;-89
2021/01/08 01:33:56;;;;;;;14.10;10.07;;;18.80;99.90;;;;;;4153533;34;20087;-89
2021/01/08 01:36:24;;;;;;;20.40;18.52;;;18.80;99.90;;;;;;4146078;34;20044;-85
2021/01/08 01:38:52;;;;;;;19.90;18.25;;;18.70;99.90;;;;;;4142478;34;20074;-89
2021/01/08 01:41:20;;;;;;;19.62;18.00;;;18.60;99.90;;;;;;4150214;34;20065;-90
2021/01/08 01:43:48;;;;;;;15.88;13.95;;;18.50;99.90;;;;;;4146039;34;20041;-86
2021/01/08 01:46:26;;;;;;;14.77;13.50;;;18.50;99.90;;;;;;4136219;34;20061;-87
2021/01/08 01:48:55;;;;;;;15.85;13.90;;;18.50;99.90;;;;;;4157092;34;20045;-89
2021/01/08 01:51:23;;;;;;;15.55;2.70;;;18.50;99.90;;;;;;4154070;34;20080;-88
2021/01/08 01:53:52;;;;;;;13.30;1.73;;;18.50;99.90;;;;;;4150526;34;20096;-85
2021/01/08 01:56:20;;;;;;;13.88;12.10;;;18.50;99.90;;;;;;4144244;34;20114;-86
2021/01/08 01:58:48;;;;;;;17.45;14.32;;;18.50;99.90;;;;;;4159865;34;20115;-88
2021/01/08 02:01:16;;;;;;;8.60;4.50;;;18.40;99.90;;;;;;4141301;34;20613;-88
2021/01/08 02:03:49;;;;;;;18.87;11.38;;;18.30;99.90;;;;;;4142521;34;20590;-87
2021/01/08 02:06:20;;;;;;;12.77;11.65;;;18.30;99.90;;;;;;4147448;34;20049;-91
2021/01/08 02:08:59;;;;;;;18.37;16.25;;;18.30;99.90;;;;;;4127279;34;20100;-88
2021/01/08 02:11:32;;;;;;;15.13;13.65;;;18.20;99.90;;;;;;4136529;34;20094;-86
2021/01/08 02:14:07;;;;;;;16.73;13.30;;;18.20;99.90;;;;;;4151340;34;20049;-86
2021/01/08 02:16:37;;;;;;;26.23;24.17;;;18.20;99.90;;;;;;4147315;34;20075;-85
2021/01/08 02:19:12;;;;;;;22.83;20.70;;;18.20;99.90;;;;;;4147108;34;20054;-88
2021/01/08 02:21:51;;;;;;;8.27;1.52;;;18.30;99.90;;;;;;4148602;34;20064;-85
2021/01/08 02:24:39;;;;;;;9.35;2.03;;;18.40;99.90;;;;;;4148147;34;20138;-87
2021/01/08 02:27:08;;;;;;;7.93;2.05;;;18.40;99.90;;;;;;4144686;34;20400;-92
2021/01/08 02:29:37;;;;;;;6.82;1.87;;;18.40;99.90;;;;;;4156432;34;20412;-89
2021/01/08 02:32:05;;;;;;;6.82;1.60;;;18.40;99.90;;;;;;4147782;34;20093;-84
2021/01/08 02:34:34;;;;;;;13.50;7.47;;;18.40;99.90;;;;;;4144427;34;20075;-89
2021/01/08 02:37:02;;;;;;;33.13;25.77;;;18.40;99.90;;;;;;4146566;34;20083;-85
2021/01/08 02:39:31;;;;;;;12.82;2.90;;;18.50;99.90;;;;;;4153491;34;20079;-86
2021/01/08 02:42:00;;;;;;;15.15;2.37;;;18.50;99.90;;;;;;4145171;34;20120;-88
2021/01/08 02:44:29;;;;;;;22.65;2.03;;;18.50;99.90;;;;;;4150454;34;20086;-89
2021/01/08 02:46:56;;;;;;;10.73;1.95;;;18.50;99.90;;;;;;4155330;34;20064;-91
2021/01/08 02:49:24;;;;;;;16.45;2.40;;;18.40;99.90;;;;;;4154939;34;20420;-88
2021/01/08 02:51:53;;;;;;;26.70;3.05;;;18.40;99.90;;;;;;4148873;34;20118;-84
2021/01/08 02:54:21;;;;;;;14.75;3.05;;;18.40;99.90;;;;;;4161428;34;20048;-87
2021/01/08 02:56:54;;;;;;;17.37;2.17;;;18.40;99.90;;;;;;4155109;34;20123;-88
2021/01/08 02:59:25;;;;;;;7.82;1.90;;;18.40;99.90;;;;;;4147425;34;20559;-88
2021/01/08 03:01:54;;;;;;;14.00;2.72;;;18.40;99.90;;;;;;4140364;34;20056;-87
2021/01/08 03:04:22;;;;;;;17.08;2.83;;;18.40;99.90;;;;;;4137001;34;20054;-88
2021/01/08 03:06:53;;;;;;;13.93;2.42;;;18.30;99.90;;;;;;4145029;34;20052;-90
2021/01/08 03:09:21;;;;;;;20.37;2.78;;;18.30;99.90;;;;;;4164981;34;20068;-87
2021/01/08 04:12:31;;;;;;;44.30;39.80;;;18.00;99.90;;;;;;4147867;34;20127;-84
2021/01/08 04:14:59;;;;;;;46.03;41.88;;;18.10;99.90;;;;;;4152405;34;20692;-85
2021/01/08 04:17:28;;;;;;;49.50;45.15;;;18.10;99.90;;;;;;4158108;34;20056;-85
2021/01/08 04:19:56;;;;;;;10.73;2.37;;;18.00;99.90;;;;;;4162317;34;20056;-85
2021/01/08 04:22:24;;;;;;;7.68;2.00;;;18.00;99.90;;;;;;4147576;34;20487;-85
2021/01/08 04:24:52;;;;;;;19.37;3.17;;;18.00;99.90;;;;;;4158727;34;20488;-85
2021/01/08 04:27:21;;;;;;;21.48;3.65;;;18.00;99.90;;;;;;4164498;34;20111;-86
2021/01/08 04:29:49;;;;;;;14.52;2.00;;;18.00;99.90;;;;;;4145112;34;20510;-88
2021/01/08 04:32:16;;;;;;;20.88;3.12;;;18.00;99.90;;;;;;4148187;34;20057;-90
2021/01/08 04:34:46;;;;;;;21.15;2.20;;;18.00;99.90;;;;;;4142945;34;20106;-90
2021/01/08 04:37:14;;;;;;;15.73;2.95;;;18.00;99.90;;;;;;4141005;34;20055;-91
2021/01/08 04:39:42;;;;;;;12.63;3.00;;;17.90;99.90;;;;;;4160449;34;20060;-87
2021/01/08 04:42:10;;;;;;;15.43;2.75;;;18.00;99.90;;;;;;4136228;34;20096;-90
2021/01/08 04:44:39;;;;;;;14.65;2.30;;;18.00;99.90;;;;;;4150702;34;20086;-85
2021/01/08 04:47:13;;;;;;;13.65;2.45;;;18.00;99.90;;;;;;4148268;34;20060;-89
2021/01/08 04:49:41;;;;;;;11.18;2.12;;;17.90;99.90;;;;;;4142855;34;20104;-88
2021/01/08 04:52:11;;;;;;;10.23;2.05;;;17.80;99.90;;;;;;4145096;34;20067;-86
2021/01/08 04:54:40;;;;;;;15.63;2.20;;;17.90;99.90;;;;;;4141284;34;20098;-86
2021/01/08 04:57:16;;;;;;;10.07;2.15;;;17.80;99.90;;;;;;4162039;34;20576;-85
2021/01/08 04:59:44;;;;;;;12.57;2.28;;;17.80;99.90;;;;;;4149169;34;20056;-85
2021/01/08 05:02:14;;;;;;;7.10;2.00;;;17.80;99.90;;;;;;4148716;34;20128;-89
2021/01/08 05:04:43;;;;;;;15.30;2.00;;;17.80;99.90;;;;;;4149797;34;20095;-89
2021/01/08 05:07:11;;;;;;;13.90;2.40;;;17.90;99.90;;;;;;4163248;34;20133;-84
2021/01/08 05:09:39;;;;;;;12.73;2.40;;;17.90;99.90;;;;;;4159415;34;20056;-85
2021/01/08 05:12:08;;;;;;;18.12;2.97;;;17.90;99.90;;;;;;4160166;34;20060;-85
2021/01/08 05:14:43;;;;;;;6.47;1.90;;;17.90;99.90;;;;;;4165723;34;20429;-87
2021/01/08 05:17:12;;;;;;;6.12;1.90;;;17.70;99.90;;;;;;4163489;34;20064;-87
2021/01/08 05:19:49;;;;;;;45.35;41.90;;;17.40;99.90;;;;;;4165726;34;20096;-88
2021/01/08 05:39:26;;;;;;;11.90;1.30;;;16.70;99.90;;;;;;4326953;28;20050;-87
2021/01/08 05:41:55;;;;;;;12.48;2.25;;;16.80;99.90;;;;;;4152707;34;20057;-86
2021/01/08 05:44:26;;;;;;;12.60;1.87;;;16.90;99.90;;;;;;4156620;34;20051;-88
2021/01/08 05:46:56;;;;;;;15.45;2.30;;;16.90;99.90;;;;;;4152616;34;20048;-87
2021/01/08 05:49:25;;;;;;;12.27;1.98;;;17.00;99.90;;;;;;4165452;34;20086;-86
2021/01/08 05:51:56;;;;;;;12.43;2.37;;;17.00;99.90;;;;;;4154156;34;20073;-85
2021/01/08 05:54:26;;;;;;;10.48;2.65;;;17.00;99.90;;;;;;4152272;34;20075;-89
2021/01/08 05:56:54;;;;;;;8.27;1.37;;;17.10;99.90;;;;;;4142919;34;20108;-85
2021/01/08 05:59:25;;;;;;;15.48;2.17;;;17.10;99.90;;;;;;4145536;34;20442;-85
2021/01/08 06:01:56;;;;;;;18.30;3.17;;;17.00;99.90;;;;;;4148047;34;20065;-88
2021/01/08 06:04:34;;;;;;;22.15;2.45;;;17.00;99.90;;;;;;4140701;34;20036;-88
2021/01/08 06:30:00;;;;;;;9.13;2.20;;;17.00;99.90;;;;;;4568093;29;20583;-85
2021/01/08 06:32:30;;;;;;;10.32;1.75;;;16.90;99.90;;;;;;4174218;34;20082;-84
2021/01/08 06:35:08;;;;;;;10.20;2.00;;;16.90;99.90;;;;;;4160778;34;20604;-87
2021/01/08 06:37:39;;;;;;;13.20;2.25;;;16.80;99.90;;;;;;4161903;34;20113;-85
2021/01/08 06:40:10;;;;;;;11.10;1.50;;;16.70;99.90;;;;;;4173193;34;20085;-85
2021/01/08 06:42:51;;;;;;;8.38;2.95;;;16.60;99.90;;;;;;4157729;34;20512;-86
2021/01/08 06:45:22;;;;;;;9.63;6.03;;;16.50;99.90;;;;;;4163905;34;20060;-87
2021/01/08 06:47:50;;;;;;;9.52;7.78;;;16.50;99.90;;;;;;4160969;34;20124;-90
2021/01/08 06:50:20;;;;;;;18.62;2.22;;;16.40;99.90;;;;;;4144061;34;20128;-87
2021/01/08 06:52:49;;;;;;;23.70;17.37;;;16.40;99.90;;;;;;4151269;34;20068;-84
2021/01/08 06:55:22;;;;;;;4.85;1.42;;;16.40;99.90;;;;;;4157386;34;20134;-84
2021/01/08 06:57:55;;;;;;;5.78;1.25;;;16.40;99.90;;;;;;4153873;34;20082;-90
2021/01/08 07:00:28;;;;;;;31.27;29.27;;;16.50;99.90;;;;;;4159609;34;20083;-89
2021/01/08 07:03:06;;;;;;;30.75;27.92;;;16.50;99.90;;;;;;4159013;34;20071;-85
2021/01/08 07:05:34;;;;;;;27.23;24.85;;;16.50;99.90;;;;;;4153635;34;20087;-84
2021/01/08 07:08:03;;;;;;;29.02;26.90;;;16.60;99.90;;;;;;4158941;34;20114;-85
2021/01/08 07:10:33;;;;;;;30.77;28.15;;;16.60;99.90;;;;;;4158832;34;20119;-87
2021/01/08 07:13:03;;;;;;;26.20;24.40;;;16.70;99.90;;;;;;4166035;34;20044;-89
2021/01/08 07:15:33;;;;;;;14.10;1.90;;;16.70;99.90;;;;;;4165967;34;20109;-89
2021/01/08 07:18:02;;;;;;;16.52;1.58;;;16.60;99.90;;;;;;4159676;34;20193;-85
2021/01/08 07:20:31;;;;;;;7.78;1.67;;;16.50;99.90;;;;;;4159632;34;20115;-89
2021/01/08 07:23:19;;;;;;;26.92;25.23;;;16.40;99.90;;;;;;4155866;34;20099;-90
2021/01/08 07:25:53;;;;;;;25.23;23.23;;;16.20;99.90;;;;;;4152151;34;20115;-85
2021/01/08 07:28:22;;;;;;;27.65;25.70;;;16.20;99.90;;;;;;4158044;34;20104;-86
2021/01/08 07:31:10;;;;;;;6.22;1.52;;;16.20;99.90;;;;;;4158737;34;20056;-85
2021/01/08 07:33:47;;;;;;;10.23;2.03;;;16.30;99.90;;;;;;4155598;34;20397;-86
2021/01/08 07:36:23;;;;;;;9.68;1.98;;;16.30;99.90;;;;;;4163100;34;20068;-88
2021/01/08 07:38:51;;;;;;;11.82;1.90;;;16.50;99.90;;;;;;4157540;34;20064;-91
2021/01/08 07:41:37;;;;;;;6.82;1.70;;;16.40;99.90;;;;;;4148984;34;20161;-85
2021/01/08 07:44:33;;;;;;;6.57;1.73;;;16.30;99.90;;;;;;4153817;34;20076;-87
2021/01/08 07:47:25;;;;;;;29.15;26.90;;;16.20;99.90;;;;;;4152904;34;20087;-85
2021/01/08 07:50:11;;;;;;;47.47;44.17;;;16.20;99.90;;;;;;4156526;34;20072;-86
2021/01/08 07:52:42;;;;;;;20.20;16.50;;;16.20;99.90;;;;;;4165698;34;20060;-90
2021/01/08 07:55:33;;;;;;;5.32;1.10;;;16.30;99.90;;;;;;4147906;34;20508;-87
2021/01/08 07:58:05;;;;;;;7.35;1.30;;;16.30;99.90;;;;;;4154626;34;20136;-88
2021/01/08 08:00:34;;;;;;;8.20;1.65;;;16.40;99.90;;;;;;4146722;34;20126;-84
2021/01/08 08:03:03;;;;;;;3.20;1.37;;;16.40;99.90;;;;;;4150595;34;20854;-85
2021/01/08 08:05:34;;;;;;;9.85;1.60;;;16.40;99.90;;;;;;4157046;34;20068;-86
2021/01/08 08:08:02;;;;;;;8.93;1.50;;;16.70;99.90;;;;;;4160649;34;20195;-88
2021/01/08 08:10:33;;;;;;;13.30;5.78;;;16.70;99.90;;;;;;4155231;34;20130;-89
2021/01/08 08:13:01;;;;;;;17.85;16.70;;;17.00;99.90;;;;;;4169781;34;20099;-86
2021/01/08 08:15:30;;;;;;;4.40;2.95;;;17.00;99.90;;;;;;4162018;34;20076;-87
2021/01/08 08:18:00;;;;;;;30.83;28.65;;;18.10;99.90;;;;;;4153090;34;20102;-85
2021/01/08 08:20:28;;;;;;;7.60;5.90;;;19.20;99.90;;;;;;4161431;34;20357;-86
2021/01/08 08:22:57;;;;;;;11.70;9.02;;;20.30;99.90;;;;;;4158159;34;20492;-87
2021/01/08 08:25:29;;;;;;;11.10;10.13;;;21.00;99.90;;;;;;4161598;34;20056;-87
2021/01/08 08:27:59;;;;;;;6.50;5.68;;;22.20;99.60;;;;;;4162217;34;20084;-87
2021/01/08 08:30:29;;;;;;;7.20;3.80;;;23.10;97.10;;;;;;4145932;34;20094;-87
2021/01/08 08:32:58;;;;;;;5.30;1.80;;;23.90;95.30;;;;;;4156611;34;20056;-87
2021/01/08 08:35:27;;;;;;;5.20;2.03;;;24.70;93.70;;;;;;4155037;34;20122;-87
2021/01/08 09:59:22;;;;;;;4.43;1.67;;;27.90;91.00;;;;;;4481850;28;19971;-86
2021/01/08 10:02:09;;;;;;;6.78;3.45;;;26.90;91.00;;;;;;4159291;34;20112;-89
2021/01/08 10:04:44;;;;;;;4.75;1.77;;;30.00;87.70;;;;;;4155709;34;20078;-85
2021/01/08 10:07:12;;;;;;;3.15;2.87;;;31.00;80.00;;;;;;4138887;34;20119;-87
2021/01/08 10:09:52;;;;;;;4.57;2.50;;;31.90;76.90;;;;;;4146687;34;20134;-86
2021/01/08 10:12:24;;;;;;;4.95;2.80;;;32.40;73.20;;;;;;4157212;34;20089;-84
2021/01/08 10:15:08;;;;;;;5.82;2.33;;;32.90;71.20;;;;;;4168012;34;20145;-88
2021/01/08 10:17:48;;;;;;;6.28;1.12;;;32.80;70.00;;;;;;4150490;34;20064;-87
2021/01/08 10:20:24;;;;;;;4.22;1.80;;;32.10;70.60;;;;;;4144789;34;20173;-86
2021/01/08 10:22:53;;;;;;;4.60;2.03;;;30.70;73.00;;;;;;4149666;34;20064;-86
2021/01/08 10:25:29;;;;;;;4.60;1.17;;;30.90;73.60;;;;;;4135389;34;20113;-84
2021/01/08 10:28:24;;;;;;;7.50;1.50;;;27.50;79.70;;;;;;4161523;34;20052;-87
2021/01/08 10:30:56;;;;;;;6.30;3.20;;;25.30;88.10;;;;;;4158506;34;20084;-88
2021/01/08 10:33:26;;;;;;;6.37;3.20;;;27.00;90.40;;;;;;4169410;34;20103;-84
2021/01/08 10:35:58;;;;;;;3.97;1.15;;;29.60;79.30;;;;;;4146792;34;20368;-84
2021/01/08 10:38:26;;;;;;;5.55;1.33;;;28.30;79.60;;;;;;4145520;34;20104;-85
2021/01/08 10:40:54;;;;;;;3.78;1.08;;;26.10;88.50;;;;;;4150820;34;20115;-83
2021/01/08 10:43:25;;;;;;;4.10;1.10;;;24.20;91.50;;;;;;4165573;34;20136;-86
2021/01/08 10:45:55;;;;;;;3.17;1.65;;;23.40;93.00;;;;;;4160209;34;20071;-88
2021/01/08 10:48:25;;;;;;;5.18;1.20;;;23.90;94.20;;;;;;4162600;34;20074;-91
2021/01/08 10:50:56;;;;;;;10.88;1.58;;;22.60;96.60;;;;;;4163945;34;20056;-86
2021/01/08 10:53:25;;;;;;;3.90;1.10;;;23.50;94.70;;;;;;4163741;34;20083;-86
2021/01/08 10:55:53;;;;;;;5.07;1.60;;;23.80;93.80;;;;;;4156937;34;20079;-86
2021/01/08 10:58:21;;;;;;;6.00;1.30;;;23.70;94.50;;;;;;4150209;34;20065;-88
2021/01/08 11:00:50;;;;;;;13.18;1.80;;;22.90;96.10;;;;;;4141817;34;20048;-89
2021/01/08 11:03:19;;;;;;;9.18;1.92;;;21.70;99.90;;;;;;4169080;34;20139;-86
2021/01/08 11:05:47;;;;;;;6.87;1.60;;;20.20;99.90;;;;;;4162503;34;20060;-88
2021/01/08 11:08:18;;;;;;;6.37;1.70;;;19.60;99.90;;;;;;4149325;34;20064;-86
2021/01/08 11:10:46;;;;;;;8.75;3.70;;;19.80;99.90;;;;;;4147367;34;20112;-89
2021/01/08 11:13:14;;;;;;;10.90;5.53;;;18.70;99.90;;;;;;4165450;34;20112;-89
2021/01/08 11:15:44;;;;;;;9.02;6.72;;;21.70;99.90;;;;;;4136938;34;20115;-88
2021/01/08 11:18:12;;;;;;;8.07;4.32;;;23.30;99.90;;;;;;4162022;34;20106;-88
2021/01/08 11:20:40;;;;;;;6.93;2.87;;;25.30;96.00;;;;;;4159798;34;20096;-87
2021/01/08 11:23:09;;;;;;;8.98;2.03;;;27.60;93.20;;;;;;4161780;34;20068;-86
2021/01/08 11:25:37;;;;;;;4.25;3.12;;;28.00;89.30;;;;;;4145768;34;20060;-87
2021/01/08 11:28:07;;;;;;;7.68;2.87;;;28.10;89.40;;;;;;4153353;34;20436;-89
2021/01/08 11:30:37;;;;;;;5.57;1.33;;;29.20;86.60;;;;;;4159818;34;20168;-88
2021/01/08 11:33:05;;;;;;;4.10;1.25;;;25.10;88.70;;;;;;4165364;34;20098;-86
2021/01/08 11:35:35;;;;;;;6.37;1.67;;;22.50;94.70;;;;;;4145771;34;20505;-89
2021/01/08 11:38:03;;;;;;;9.52;3.60;;;22.20;98.00;;;;;;4153587;34;20079;-84
2021/01/08 11:40:31;;;;;;;5.85;2.75;;;24.90;94.80;;;;;;4155043;34;20044;-85
2021/01/08 11:43:04;;;;;;;7.00;1.40;;;25.90;91.80;;;;;;4167605;34;20068;-87
2021/01/08 11:45:32;;;;;;;11.88;1.62;;;23.90;93.80;;;;;;4158168;34;20075;-88
2021/01/08 11:48:03;;;;;;;5.15;3.10;;;22.00;96.80;;;;;;4156706;34;20551;-88
2021/01/08 11:50:31;;;;;;;4.25;1.60;;;22.80;99.50;;;;;;4142150;34;20154;-83
2021/01/08 11:52:59;;;;;;;2.83;0.93;;;21.30;99.20;;;;;;4149957;34;20153;-83
2021/01/08 11:55:27;;;;;;;4.65;1.52;;;20.90;99.90;;;;;;4149838;34;20067;-85
2021/01/08 11:57:56;;;;;;;10.57;1.40;;;20.50;99.90;;;;;;4147492;34;20434;-87
2021/01/08 12:00:24;;;;;;;9.48;2.85;;;20.10;99.90;;;;;;4165091;34;20064;-89
2021/01/08 12:02:52;;;;;;;5.03;1.83;;;19.50;99.90;;;;;;4155654;34;20040;-86
2021/01/08 12:05:23;;;;;;;7.28;2.87;;;19.40;99.90;;;;;;4161998;34;20083;-88
2021/01/08 12:07:52;;;;;;;5.82;1.12;;;19.10;99.90;;;;;;4166998;34;20123;-86
2021/01/08 12:10:20;;;;;;;12.20;1.77;;;19.40;99.90;;;;;;4159882;34;20124;-88
2021/01/08 12:12:50;;;;;;;5.60;1.30;;;19.80;99.90;;;;;;4163498;34;20064;-87
2021/01/08 12:15:19;;;;;;;3.62;1.35;;;19.00;99.90;;;;;;4164868;34;20052;-86
2021/01/08 12:17:47;;;;;;;6.85;2.08;;;18.60;99.90;;;;;;4164304;34;20102;-84
2021/01/08 12:20:18;;;;;;;4.68;1.65;;;18.40;99.90;;;;;;4150688;34;20037;-85
2021/01/08 12:22:47;;;;;;;4.47;1.80;;;18.90;99.90;;;;;;4144009;34;20297;-89
2021/01/08 12:25:15;;;;;;;8.82;1.50;;;19.10;99.90;;;;;;4149943;34;20188;-93
2021/01/08 12:27:43;;;;;;;7.07;1.42;;;19.10;99.90;;;;;;4147304;34;20110;-86
2021/01/08 12:30:24;;;;;;;9.13;2.17;;;19.30;99.90;;;;;;4151299;34;20090;-90
2021/01/08 12:33:00;;;;;;;6.95;1.30;;;19.00;99.90;;;;;;4163080;34;20076;-90
2021/01/08 12:35:29;;;;;;;1.77;1.60;;;18.20;99.90;;;;;;4126953;34;20149;-88
2021/01/08 12:37:59;;;;;;;4.15;3.85;;;18.40;99.90;;;;;;4131880;34;20104;-92
2021/01/08 12:40:28;;;;;;;9.05;7.90;;;18.50;99.90;;;;;;4150098;34;20192;-86
2021/01/08 12:42:56;;;;;;;6.22;5.72;;;18.20;99.90;;;;;;4137926;34;20122;-86
2021/01/08 12:45:24;;;;;;;8.65;5.45;;;18.50;99.90;;;;;;4144169;34;20129;-85
2021/01/08 12:47:56;;;;;;;14.02;9.13;;;;;;;;;;4130750;34;20124;-89
2021/01/08 12:50:24;;;;;;;11.07;8.07;;;17.90;99.90;;;;;;4154265;34;20044;-86
2021/01/08 12:52:52;;;;;;;8.60;5.68;;;17.20;99.90;;;;;;4141407;34;20056;-86
2021/01/08 12:55:23;;;;;;;15.00;12.90;;;17.20;99.90;;;;;;4133618;34;20116;-87
2021/01/08 12:57:52;;;;;;;18.17;13.77;;;17.60;99.90;;;;;;4142732;34;20337;-93
2021/01/08 13:00:22;;;;;;;11.25;10.45;;;17.90;99.90;;;;;;4158150;34;20479;-86
2021/01/08 13:02:54;;;;;;;8.65;7.95;;;19.30;99.90;;;;;;4140167;34;20090;-88
2021/01/08 13:05:22;;;;;;;5.70;3.42;;;20.00;99.90;;;;;;4146396;34;20086;-85
2021/01/08 13:07:50;;;;;;;3.25;2.75;;;20.00;99.90;;;;;;4162114;34;20091;-85
2021/01/08 13:10:23;;;;;;;18.95;17.40;;;20.10;99.90;;;;;;4149098;34;20033;-86
2021/01/08 13:12:56;;;;;;;2.80;1.20;;;20.40;99.90;;;;;;4149070;34;20092;-85
2021/01/08 13:15:27;;;;;;;5.25;1.55;;;19.90;99.90;;;;;;4161485;34;20083;-86
2021/01/08 13:17:55;;;;;;;10.30;4.03;;;20.00;99.90;;;;;;4146732;34;20092;-85
2021/01/08 13:20:23;;;;;;;12.48;11.27;;;20.10;99.90;;;;;;4159448;34;20044;-86
2021/01/08 13:22:55;;;;;;;14.52;13.05;;;20.30;99.90;;;;;;4159225;34;20095;-88
2021/01/08 13:25:24;;;;;;;4.00;1.27;;;19.70;99.90;;;;;;4169710;28;20029;-85
2021/01/08 13:27:53;;;;;;;7.20;1.58;;;19.90;99.90;;;;;;4143012;34;20113;-86
2021/01/08 13:30:23;;;;;;;7.53;1.48;;;20.10;99.90;;;;;;4163468;34;20479;-89
2021/01/08 13:32:51;;;;;;;4.80;1.10;;;20.40;99.90;;;;;;4156212;34;20132;-87
2021/01/08 13:35:21;;;;;;;6.55;1.27;;;20.20;99.90;;;;;;4158759;34;20061;-86
2021/01/08 13:37:49;;;;;;;7.03;1.30;;;19.60;99.90;;;;;;4150118;34;20063;-86
2021/01/08 13:40:18;;;;;;;8.32;1.20;;;19.00;99.90;;;;;;4166482;34;20068;-86
2021/01/08 13:42:47;;;;;;;2.30;0.90;;;19.10;99.90;;;;;;4172830;34;20134;-87
2021/01/08 13:45:15;;;;;;;9.00;8.15;;;18.40;99.90;;;;;;4143830;34;20082;-89
2021/01/08 13:47:43;;;;;;;9.02;8.25;;;18.40;99.90;;;;;;4142626;34;20041;-85
2021/01/08 13:50:12;;;;;;;8.40;6.40;;;18.30;99.90;;;;;;4144556;34;20160;-85
2021/01/08 13:52:42;;;;;;;8.27;5.20;;;18.80;99.90;;;;;;4155499;34;20074;-85
2021/01/08 13:55:10;;;;;;;7.03;6.40;;;18.60;99.90;;;;;;4175805;34;20056;-87
2021/01/08 13:57:39;;;;;;;10.52;6.50;;;18.80;99.90;;;;;;4162487;34;20141;-84
2021/01/08 14:00:08;;;;;;;12.32;11.23;;;18.20;99.90;;;;;;4173128;34;20091;-86
2021/01/08 14:02:37;;;;;;;9.30;8.38;;;17.70;99.90;;;;;;4164568;34;20084;-86
2021/01/08 14:05:06;;;;;;;5.78;1.70;;;17.70;99.90;;;;;;4148406;34;20086;-89
2021/01/08 14:07:36;;;;;;;5.50;2.25;;;17.30;99.90;;;;;;4141833;34;20242;-89
2021/01/08 14:10:05;;;;;;;6.90;1.30;;;16.50;99.90;;;;;;4151353;34;20095;-92
2021/01/08 14:12:34;;;;;;;2.75;1.10;;;16.40;99.90;;;;;;4146613;34;20388;-90
2021/01/08 14:15:03;;;;;;;7.65;1.10;;;16.60;99.90;;;;;;4153719;34;20112;-93
2021/01/08 14:17:31;;;;;;;7.43;6.45;;;16.50;99.90;;;;;;4163030;34;20114;-87
2021/01/08 14:20:13;;;;;;;11.07;9.43;;;16.30;99.90;;;;;;4146707;34;20124;-90
2021/01/08 14:22:45;;;;;;;10.27;6.70;;;;;;;;;;4145992;34;20131;-86
2021/01/08 14:25:15;;;;;;;10.13;4.82;;;15.70;99.90;;;;;;4157186;34;20116;-87
2021/01/08 14:27:50;;;;;;;25.83;24.23;;;16.00;99.90;;;;;;4157569;34;20044;-88
2021/01/08 14:30:26;;;;;;;9.82;3.10;;;16.10;99.90;;;;;;4143845;34;20500;-89
2021/01/08 14:32:58;;;;;;;17.95;4.10;;;15.90;99.90;;;;;;4148516;34;20140;-88
2021/01/08 14:35:26;;;;;;;22.20;2.47;;;16.20;99.90;;;;;;4163512;34;20070;-88
2021/01/08 14:37:54;;;;;;;12.90;10.23;;;16.70;99.90;;;;;;4137827;34;20047;-89
2021/01/08 14:40:22;;;;;;;12.65;9.65;;;16.60;99.90;;;;;;4156354;34;20156;-90
2021/01/08 14:42:50;;;;;;;20.75;18.87;;;16.80;99.90;;;;;;4141037;34;20082;-88
2021/01/08 14:45:29;;;;;;;11.60;5.97;;;17.10;99.90;;;;;;4139191;34;20060;-87
2021/01/08 14:47:57;;;;;;;12.15;6.53;;;17.50;99.90;;;;;;4146433;34;20056;-93
2021/01/08 14:50:25;;;;;;;11.80;7.60;;;17.90;99.90;;;;;;4167643;34;20110;-86
2021/01/08 14:52:57;;;;;;;10.07;2.12;;;17.90;99.90;;;;;;4153316;34;20037;-90
2021/01/08 14:55:25;;;;;;;13.15;8.23;;;18.10;99.90;;;;;;4150995;34;20488;-87
2021/01/08 14:57:53;;;;;;;5.20;1.20;;;18.00;99.90;;;;;;4161656;34;20070;-87
2021/01/08 15:00:22;;;;;;;16.98;15.73;;;18.10;99.90;;;;;;4151579;34;20041;-89
2021/01/08 15:02:50;;;;;;;17.77;16.45;;;18.20;99.90;;;;;;4138930;34;20064;-87
2021/01/08 15:05:18;;;;;;;22.05;20.37;;;18.20;99.90;;;;;;4151217;34;20569;-87
2021/01/08 15:07:47;;;;;;;4.62;2.55;;;17.70;99.90;;;;;;4152948;34;20048;-87
2021/01/08 15:10:16;;;;;;;8.48;6.28;;;17.10;99.90;;;;;;4156358;34;20096;-91
2021/01/08 15:12:48;;;;;;;4.37;3.75;;;17.10;99.90;;;;;;4172348;34;20052;-85
2021/01/08 15:15:16;;;;;;;6.65;2.42;;;17.20;99.90;;;;;;4167520;34;20162;-85
2021/01/08 15:17:44;;;;;;;8.98;6.47;;;17.70;99.90;;;;;;4160620;34;21335;-87
2021/01/08 15:20:13;;;;;;;4.70;1.30;;;17.40;99.90;;;;;;4163682;34;20075;-88
2021/01/08 15:22:44;;;;;;;12.85;11.90;;;17.70;99.90;;;;;;4156198;34;20037;-89
2021/01/08 15:25:13;;;;;;;6.25;1.17;;;17.60;99.90;;;;;;4164780;34;20420;-92
2021/01/08 15:27:45;;;;;;;3.95;1.35;;;17.70;99.90;;;;;;4160585;34;20092;-86
2021/01/08 15:30:15;;;;;;;7.18;1.48;;;17.60;99.90;;;;;;4160922;34;20074;-87
2021/01/08 15:32:43;;;;;;;8.20;1.50;;;17.50;99.90;;;;;;4160003;34;20065;-91
2021/01/08 15:35:11;;;;;;;7.43;1.52;;;17.20;99.90;;;;;;4166475;34;20072;-88
2021/01/08 15:37:39;;;;;;;3.58;2.55;;;17.30;99.90;;;;;;4150580;34;20200;-86
2021/01/08 15:40:08;;;;;;;4.20;1.05;;;17.00;99.90;;;;;;4141135;34;20127;-91
2021/01/08 15:42:36;;;;;;;8.15;7.57;;;16.90;99.90;;;;;;4144824;34;20076;-85
2021/01/08 15:45:05;;;;;;;6.55;1.20;;;17.10;99.90;;;;;;4163133;34;20088;-86
2021/01/08 15:47:33;;;;;;;7.40;1.50;;;17.20;99.90;;;;;;4170998;34;20077;-86
2021/01/08 15:50:02;;;;;;;7.95;1.50;;;17.20;99.90;;;;;;4162650;34;20055;-86
2021/01/08 15:52:30;;;;;;;7.70;6.15;;;17.40;99.90;;;;;;4147912;34;20069;-88
2021/01/08 15:54:59;;;;;;;5.70;2.45;;;17.70;99.90;;;;;;4147061;34;20074;-86
2021/01/08 15:57:27;;;;;;;4.82;1.35;;;17.40;99.90;;;;;;4154301;34;20056;-86
2021/01/08 15:59:55;;;;;;;3.55;1.30;;;17.40;99.90;;;;;;4160419;34;20060;-89